createdAt,value
2019-05-01T00:01:04.080Z,9.79
2019-05-01T00:03:34.532Z,9.76
2019-05-01T00:06:04.824Z,9.84
2019-05-01T00:08:33.528Z,9.82
2019-05-01T00:11:02.312Z,9.89
2019-05-01T00:13:31.028Z,9.86
2019-05-01T00:16:00.240Z,9.92
2019-05-01T00:18:29.122Z,9.91
2019-05-01T00:20:58.427Z,9.97
2019-05-01T00:23:27.140Z,9.89
2019-05-01T00:25:55.947Z,9.91
2019-05-01T00:28:24.922Z,9.79
2019-05-01T00:30:53.635Z,9.80
2019-05-01T00:33:22.394Z,9.80
2019-05-01T00:35:51.105Z,9.81
2019-05-01T00:38:19.899Z,9.69
2019-05-01T00:40:48.812Z,9.60
2019-05-01T00:43:17.524Z,9.54
2019-05-01T00:45:46.233Z,9.52
2019-05-01T00:48:15.068Z,9.46
2019-05-01T00:50:43.779Z,9.36
2019-05-01T00:53:12.496Z,9.32
2019-05-01T00:55:45.603Z,9.25
2019-05-01T00:58:31.301Z,9.25
2019-05-01T01:01:01.686Z,9.27
2019-05-01T01:03:30.414Z,9.25
2019-05-01T01:05:59.112Z,9.31
2019-05-01T01:08:27.996Z,9.28
2019-05-01T01:10:56.704Z,9.24
2019-05-01T01:13:25.425Z,9.22
2019-05-01T01:15:54.201Z,9.43
2019-05-01T01:18:22.902Z,9.57
2019-05-01T01:20:51.624Z,9.71
2019-05-01T01:23:20.725Z,9.82
2019-05-01T01:25:49.534Z,9.79
2019-05-01T01:28:19.041Z,9.61
2019-05-01T01:30:56.221Z,9.44
2019-05-01T01:33:18.275Z,9.20
2019-05-01T01:35:47.087Z,9.04
2019-05-01T01:38:15.931Z,8.98
2019-05-01T01:40:44.887Z,8.91
2019-05-01T01:43:31.342Z,8.91
2019-05-01T01:46:01.631Z,8.98
2019-05-01T01:48:30.445Z,8.89
2019-05-01T01:50:59.900Z,8.87
2019-05-01T01:53:28.811Z,8.86
2019-05-01T01:55:57.725Z,8.86
2019-05-01T01:58:26.716Z,8.93
2019-05-01T02:01:13.399Z,8.84
2019-05-01T02:03:43.823Z,8.88
2019-05-01T02:06:13.190Z,8.78
2019-05-01T02:08:41.900Z,8.64
2019-05-01T02:11:11.084Z,8.55
2019-05-01T02:13:39.988Z,8.56
2019-05-01T02:16:08.812Z,8.47
2019-05-01T02:18:37.600Z,8.32
2019-05-01T02:21:06.413Z,8.30
2019-05-01T02:23:35.129Z,8.30
2019-05-01T02:26:04.107Z,8.46
2019-05-01T02:28:34.389Z,8.43
2019-05-01T02:31:08.378Z,8.51
2019-05-01T02:33:39.696Z,8.51
2019-05-01T02:36:10.123Z,8.53
2019-05-01T02:38:40.460Z,8.43
2019-05-01T02:41:12.199Z,8.33
2019-05-01T02:43:44.930Z,8.25
2019-05-01T02:46:15.752Z,8.24
2019-05-01T02:48:47.379Z,8.25
2019-05-01T02:51:16.955Z,8.16
2019-05-01T02:53:47.680Z,7.99
2019-05-01T02:56:26.387Z,7.94
2019-05-01T02:58:57.707Z,7.88
2019-05-01T03:01:44.633Z,7.85
2019-05-01T03:03:58.709Z,7.78
2019-05-01T03:06:30.122Z,7.75
2019-05-01T03:09:00.482Z,7.67
2019-05-01T03:11:30.622Z,7.63
2019-05-01T03:14:02.190Z,7.75
2019-05-01T03:16:33.738Z,7.74
2019-05-01T03:19:14.240Z,7.72
2019-05-01T03:22:00.784Z,7.69
2019-05-01T03:24:29.937Z,7.58
2019-05-01T03:26:59.263Z,7.47
2019-05-01T03:29:28.267Z,7.46
2019-05-01T03:32:15.278Z,7.44
2019-05-01T03:34:28.303Z,7.64
2019-05-01T03:36:57.021Z,7.64
2019-05-01T03:39:27.084Z,7.67
2019-05-01T03:41:56.893Z,7.64
2019-05-01T03:44:25.705Z,7.75
2019-05-01T03:46:54.798Z,7.83
2019-05-01T03:49:23.605Z,7.85
2019-05-01T03:51:52.477Z,7.87
2019-05-01T03:54:21.774Z,8.05
2019-05-01T03:56:50.588Z,8.03
2019-05-01T03:59:19.704Z,8.26
2019-05-01T04:01:50.121Z,8.34
2019-05-01T04:04:20.506Z,8.55
2019-05-01T04:06:49.625Z,8.66
2019-05-01T04:09:18.627Z,8.70
2019-05-01T04:11:47.736Z,8.78
2019-05-01T04:14:16.549Z,8.84
2019-05-01T04:16:47.299Z,8.88
2019-05-01T04:22:29.913Z,9.08
2019-05-01T04:24:59.034Z,9.21
2019-05-01T04:27:29.516Z,9.34
2019-05-01T04:30:01.024Z,9.44
2019-05-01T04:32:31.514Z,9.56
2019-05-01T04:35:18.853Z,9.54
2019-05-01T04:37:47.893Z,9.67
2019-05-01T04:40:19.035Z,9.98
2019-05-01T04:42:47.457Z,10.46
2019-05-01T04:45:16.982Z,11.17
2019-05-01T04:47:45.717Z,11.79
2019-05-01T04:50:14.646Z,12.07
2019-05-01T04:52:43.977Z,12.32
2019-05-01T04:55:12.792Z,12.46
2019-05-01T04:57:42.451Z,12.69
2019-05-01T05:00:11.410Z,12.88
2019-05-01T05:02:42.236Z,13.08
2019-05-01T05:05:12.880Z,13.38
2019-05-01T05:07:42.195Z,14.08
2019-05-01T05:10:10.906Z,14.73
2019-05-01T05:12:45.518Z,15.12
2019-05-01T05:15:19.855Z,15.09
2019-05-01T05:17:48.776Z,15.17
2019-05-01T05:20:17.831Z,15.10
2019-05-01T05:22:46.865Z,15.02
2019-05-01T05:25:15.688Z,15.30
2019-05-01T05:27:45.940Z,15.57
2019-05-01T05:30:14.792Z,15.83
2019-05-01T05:32:44.690Z,16.03
2019-05-01T05:35:15.158Z,16.00
2019-05-01T05:37:57.310Z,15.73
2019-05-01T05:40:30.122Z,15.57
2019-05-01T05:42:59.246Z,15.46
2019-05-01T05:45:28.106Z,15.38
2019-05-01T05:47:56.827Z,15.36
2019-05-01T05:50:27.631Z,15.32
2019-05-01T05:53:04.018Z,15.55
2019-05-01T05:55:37.714Z,15.57
2019-05-01T05:58:10.937Z,15.63
2019-05-01T06:00:59.140Z,15.91
2019-05-01T06:03:48.777Z,15.77
2019-05-01T06:06:21.972Z,15.86
2019-05-01T06:08:56.302Z,15.86
2019-05-01T06:11:35.473Z,15.88
2019-05-01T06:14:15.359Z,15.88
2019-05-01T06:16:52.141Z,16.06
2019-05-01T06:19:39.569Z,16.03
2019-05-01T06:22:13.540Z,16.02
2019-05-01T06:24:47.286Z,16.20
2019-05-01T06:27:16.914Z,16.18
2019-05-01T06:29:45.955Z,16.04
2019-05-01T06:32:15.011Z,16.25
2019-05-01T06:34:44.000Z,16.49
2019-05-01T06:37:12.817Z,16.50
2019-05-01T06:39:42.768Z,16.66
2019-05-01T06:42:15.190Z,17.02
2019-05-01T06:44:54.760Z,17.25
2019-05-01T06:47:38.315Z,17.47
2019-05-01T06:50:26.116Z,17.61
2019-05-01T06:52:55.136Z,17.64
2019-05-01T06:55:27.201Z,17.69
2019-05-01T06:57:54.936Z,17.91
2019-05-01T07:00:23.665Z,18.29
2019-05-01T07:02:55.081Z,18.39
2019-05-01T07:05:24.577Z,18.40
2019-05-01T07:07:55.160Z,18.70
2019-05-01T07:10:31.421Z,18.92
2019-05-01T07:12:59.946Z,18.94
2019-05-01T07:15:28.465Z,19.18
2019-05-01T07:17:57.593Z,19.20
2019-05-01T07:20:34.195Z,19.13
2019-05-01T07:23:03.110Z,19.01
2019-05-01T07:25:34.947Z,19.05
2019-05-01T07:28:02.339Z,19.20
2019-05-01T07:30:43.064Z,19.18
2019-05-01T07:33:16.761Z,18.95
2019-05-01T07:35:45.128Z,19.25
2019-05-01T07:38:13.879Z,19.39
2019-05-01T07:40:43.195Z,19.41
2019-05-01T07:43:23.926Z,19.46
2019-05-01T07:46:04.159Z,19.30
2019-05-01T07:48:41.291Z,19.49
2019-05-01T07:51:08.911Z,19.59
2019-05-01T07:53:38.200Z,19.42
2019-05-01T07:56:07.823Z,19.34
2019-05-01T07:58:37.899Z,19.46
2019-05-01T08:01:18.219Z,19.94
2019-05-01T08:03:45.024Z,20.15
2019-05-01T08:06:16.393Z,20.21
2019-05-01T08:08:44.178Z,20.30
2019-05-01T08:11:13.796Z,20.30
2019-05-01T08:13:43.562Z,20.34
2019-05-01T08:16:12.288Z,20.40
2019-05-01T08:18:45.683Z,20.40
2019-05-01T08:21:34.374Z,20.66
2019-05-01T08:24:04.567Z,20.93
2019-05-01T08:26:33.290Z,20.85
2019-05-01T08:29:19.776Z,20.73
2019-05-01T08:31:52.834Z,21.11
2019-05-01T08:34:33.405Z,21.35
2019-05-01T08:37:02.117Z,21.16
2019-05-01T08:39:30.862Z,21.27
2019-05-01T08:42:02.925Z,21.19
2019-05-01T08:44:31.744Z,21.42
2019-05-01T08:47:14.487Z,21.43
2019-05-01T08:49:51.018Z,21.14
2019-05-01T08:52:20.272Z,21.31
2019-05-01T08:54:48.998Z,21.10
2019-05-01T08:57:17.727Z,21.12
2019-05-01T08:59:46.705Z,21.45
2019-05-01T09:02:15.403Z,21.25
2019-05-01T09:04:44.128Z,21.39
2019-05-01T09:07:14.680Z,21.19
2019-05-01T09:09:45.446Z,21.22
2019-05-01T09:12:14.663Z,21.14
2019-05-01T09:14:43.442Z,21.52
2019-05-01T09:17:12.162Z,21.80
2019-05-01T09:19:40.890Z,22.14
2019-05-01T09:22:09.744Z,22.40
2019-05-01T09:24:38.455Z,22.57
2019-05-01T09:27:24.023Z,22.71
2019-05-01T09:29:53.366Z,22.89
2019-05-01T09:32:22.186Z,23.23
2019-05-01T09:34:50.976Z,22.98
2019-05-01T09:37:19.700Z,23.34
2019-05-01T09:39:48.526Z,23.28
2019-05-01T09:42:22.897Z,23.24
2019-05-01T09:44:48.027Z,23.12
2019-05-01T09:47:16.845Z,22.77
2019-05-01T09:49:48.679Z,23.10
2019-05-01T09:52:29.980Z,23.46
2019-05-01T09:55:01.158Z,23.73
2019-05-01T09:57:29.882Z,23.63
2019-05-01T09:59:58.607Z,23.39
2019-05-01T10:02:27.447Z,23.52
2019-05-01T10:04:56.173Z,23.46
2019-05-01T10:07:28.862Z,23.18
2019-05-01T10:09:55.402Z,23.15
2019-05-01T10:12:24.124Z,23.47
2019-05-01T10:14:52.952Z,23.61
2019-05-01T10:17:21.830Z,23.64
2019-05-01T10:19:50.551Z,23.56
2019-05-01T10:22:19.311Z,23.80
2019-05-01T10:24:48.941Z,24.10
2019-05-01T10:27:19.224Z,24.26
2019-05-01T10:29:49.511Z,24.43
2019-05-01T10:32:23.239Z,24.50
2019-05-01T10:34:56.421Z,24.47
2019-05-01T10:37:28.519Z,24.33
2019-05-01T10:39:55.426Z,24.37
2019-05-01T10:42:24.289Z,24.22
2019-05-01T10:44:53.022Z,24.24
2019-05-01T10:47:21.847Z,24.51
2019-05-01T10:49:50.565Z,24.36
2019-05-01T10:52:19.277Z,24.36
2019-05-01T10:54:49.033Z,24.19
2019-05-01T10:57:17.753Z,24.05
2019-05-01T10:59:46.525Z,24.25
2019-05-01T11:02:16.917Z,24.45
2019-05-01T11:04:45.635Z,24.44
2019-05-01T11:07:14.348Z,24.63
2019-05-01T11:09:43.204Z,24.57
2019-05-01T11:12:11.915Z,24.53
2019-05-01T11:14:40.628Z,24.31
2019-05-01T11:17:09.588Z,24.09
2019-05-01T11:19:38.306Z,24.18
2019-05-01T11:22:07.034Z,24.19
2019-05-01T11:24:35.822Z,23.88
2019-05-01T11:27:04.541Z,24.03
2019-05-01T11:29:33.257Z,24.42
2019-05-01T11:32:09.431Z,24.54
2019-05-01T11:34:45.733Z,24.60
2019-05-01T11:37:33.454Z,24.69
2019-05-01T11:40:12.613Z,24.97
2019-05-01T11:42:42.296Z,25.01
2019-05-01T11:45:11.814Z,25.01
2019-05-01T11:47:40.531Z,25.14
2019-05-01T11:50:09.415Z,25.01
2019-05-01T11:52:38.141Z,24.92
2019-05-01T11:55:07.106Z,24.86
2019-05-01T11:57:35.946Z,24.89
2019-05-01T12:00:14.339Z,25.24
2019-05-01T12:02:43.194Z,25.29
2019-05-01T12:05:12.120Z,25.12
2019-05-01T12:07:40.837Z,24.98
2019-05-01T12:10:09.803Z,25.55
2019-05-01T12:12:38.524Z,25.39
2019-05-01T12:15:08.639Z,25.49
2019-05-01T12:17:39.936Z,25.46
2019-05-01T12:20:09.265Z,25.28
2019-05-01T12:22:37.987Z,25.42
2019-05-01T12:25:06.967Z,25.89
2019-05-01T12:27:35.688Z,26.11
2019-05-01T12:30:07.010Z,25.96
2019-05-01T12:32:35.977Z,25.84
2019-05-01T12:35:05.597Z,25.67
2019-05-01T12:37:36.192Z,25.60
2019-05-01T12:40:07.077Z,25.58
2019-05-01T12:42:36.203Z,25.87
2019-05-01T12:45:08.328Z,26.00
2019-05-01T12:47:38.777Z,25.61
2019-05-01T12:50:10.290Z,25.48
2019-05-01T12:52:43.894Z,25.52
2019-05-01T12:55:14.292Z,25.71
2019-05-01T12:57:43.016Z,25.67
2019-05-01T13:00:19.819Z,25.76
2019-05-01T13:02:49.759Z,26.44
2019-05-01T13:05:18.467Z,27.05
2019-05-01T13:07:47.306Z,27.67
2019-05-01T13:10:16.024Z,27.65
2019-05-01T13:12:44.740Z,27.23
2019-05-01T13:15:13.759Z,26.89
2019-05-01T13:17:42.490Z,26.08
2019-05-01T13:20:11.209Z,26.09
2019-05-01T13:22:40.083Z,25.84
2019-05-01T13:25:08.905Z,26.08
2019-05-01T13:27:39.194Z,26.40
2019-05-01T13:30:20.264Z,25.93
2019-05-01T13:32:53.302Z,25.93
2019-05-01T13:35:22.014Z,26.36
2019-05-01T13:37:50.887Z,26.30
2019-05-01T13:40:20.302Z,25.96
2019-05-01T13:42:49.029Z,25.59
2019-05-01T13:45:18.202Z,25.56
2019-05-01T13:47:46.935Z,25.49
2019-05-01T13:50:15.765Z,25.81
2019-05-01T13:52:44.630Z,26.27
2019-05-01T13:55:13.747Z,26.00
2019-05-01T13:57:42.467Z,26.12
2019-05-01T14:00:12.646Z,26.27
2019-05-01T14:02:41.624Z,26.73
2019-05-01T14:05:10.631Z,26.98
2019-05-01T14:07:39.635Z,26.83
2019-05-01T14:10:08.651Z,26.10
2019-05-01T14:12:37.364Z,25.29
2019-05-01T14:15:06.357Z,24.75
2019-05-01T14:17:35.075Z,24.31
2019-05-01T14:20:08.693Z,24.12
2019-05-01T14:22:39.862Z,24.28
2019-05-01T14:25:10.493Z,24.55
2019-05-01T14:27:39.234Z,25.50
2019-05-01T14:30:10.696Z,25.63
2019-05-01T14:32:39.415Z,25.10
2019-05-01T14:35:09.343Z,24.81
2019-05-01T14:37:38.211Z,25.18
2019-05-01T14:40:08.037Z,25.42
2019-05-01T14:42:36.758Z,25.01
2019-05-01T14:45:13.075Z,24.03
2019-05-01T14:47:41.789Z,23.43
2019-05-01T14:50:10.716Z,23.04
2019-05-01T14:52:39.468Z,22.96
2019-05-01T14:55:08.296Z,23.08
2019-05-01T14:57:37.015Z,23.00
2019-05-01T15:00:08.040Z,22.89
2019-05-01T15:02:36.769Z,22.99
2019-05-01T15:05:07.164Z,22.92
2019-05-01T15:07:43.364Z,22.80
2019-05-01T15:10:07.298Z,22.71
2019-05-01T15:12:36.022Z,22.60
2019-05-01T15:15:08.623Z,22.44
2019-05-01T15:17:38.915Z,22.31
2019-05-01T15:20:07.836Z,22.24
2019-05-01T15:22:36.589Z,22.17
2019-05-01T15:25:06.703Z,22.06
2019-05-01T15:27:35.425Z,22.10
2019-05-01T15:30:06.518Z,22.06
2019-05-01T15:32:35.231Z,22.03
2019-05-01T15:35:04.742Z,21.84
2019-05-01T15:37:35.325Z,21.80
2019-05-01T15:40:07.713Z,21.70
2019-05-01T15:42:38.240Z,21.73
2019-05-01T15:45:08.257Z,21.72
2019-05-01T15:47:36.974Z,21.49
2019-05-01T15:50:07.778Z,21.50
2019-05-01T15:52:36.499Z,21.52
2019-05-01T15:55:07.718Z,21.47
2019-05-01T15:57:36.499Z,21.32
2019-05-01T16:00:11.641Z,21.23
2019-05-01T16:02:40.353Z,21.27
2019-05-01T16:05:09.223Z,21.19
2019-05-01T16:07:37.991Z,21.15
2019-05-01T16:10:08.987Z,21.17
2019-05-01T16:12:39.416Z,21.09
2019-05-01T16:15:11.009Z,21.03
2019-05-01T16:17:39.736Z,21.01
2019-05-01T16:20:08.776Z,20.99
2019-05-01T16:22:37.496Z,20.88
2019-05-01T16:25:07.516Z,20.86
2019-05-01T16:27:36.370Z,20.76
2019-05-01T16:30:06.488Z,20.58
2019-05-01T16:32:35.307Z,20.53
2019-05-01T16:35:05.315Z,20.60
2019-05-01T16:37:34.132Z,20.37
2019-05-01T16:40:07.276Z,20.27
2019-05-01T16:42:36.261Z,20.25
2019-05-01T16:45:06.387Z,20.29
2019-05-01T16:47:35.105Z,20.17
2019-05-01T16:50:05.366Z,20.10
2019-05-01T16:52:35.084Z,19.98
2019-05-01T16:55:05.201Z,20.00
2019-05-01T16:57:33.992Z,20.07
2019-05-01T17:00:02.806Z,19.96
2019-05-01T17:02:33.199Z,19.74
2019-05-01T17:05:03.530Z,19.68
2019-05-01T17:07:36.550Z,19.50
2019-05-01T17:10:14.656Z,19.38
2019-05-01T17:12:44.946Z,19.43
2019-05-01T17:15:13.869Z,19.34
2019-05-01T17:17:43.643Z,19.19
2019-05-01T17:20:12.949Z,19.15
2019-05-01T17:22:41.685Z,19.09
2019-05-01T17:25:10.661Z,19.05
2019-05-01T17:27:39.384Z,19.05
2019-05-01T17:30:14.200Z,19.01
2019-05-01T17:32:46.919Z,18.93
2019-05-01T17:35:15.710Z,18.90
2019-05-01T17:37:44.445Z,18.92
2019-05-01T17:40:13.560Z,18.93
2019-05-01T17:42:42.287Z,18.91
2019-05-01T17:45:11.204Z,18.89
2019-05-01T17:47:39.965Z,18.89
2019-05-01T17:50:08.678Z,18.72
2019-05-01T17:52:37.403Z,18.73
2019-05-01T17:55:07.464Z,18.70
2019-05-01T17:57:36.174Z,18.71
2019-05-01T18:00:18.083Z,18.57
2019-05-01T18:02:48.367Z,18.50
2019-05-01T18:05:18.660Z,18.29
2019-05-01T18:07:47.448Z,18.15
2019-05-01T18:10:16.166Z,17.97
2019-05-01T18:12:44.932Z,17.92
2019-05-01T18:15:13.887Z,17.76
2019-05-01T18:17:42.607Z,17.60
2019-05-01T18:20:11.533Z,17.53
2019-05-01T18:22:57.980Z,17.37
2019-05-01T18:25:46.418Z,17.19
2019-05-01T18:28:25.078Z,17.05
2019-05-01T18:30:56.438Z,17.10
2019-05-01T18:33:25.998Z,17.16
2019-05-01T18:35:55.257Z,17.21
2019-05-01T18:38:34.819Z,17.08
2019-05-01T18:41:08.063Z,17.03
2019-05-01T18:43:36.779Z,16.95
2019-05-01T18:46:08.216Z,16.94
2019-05-01T18:48:37.111Z,16.88
2019-05-01T18:51:05.831Z,16.86
2019-05-01T18:53:34.557Z,16.86
2019-05-01T18:56:05.496Z,16.91
2019-05-01T18:58:33.831Z,16.87
2019-05-01T19:01:03.980Z,16.78
2019-05-01T19:03:37.158Z,16.71
2019-05-01T19:06:03.577Z,16.76
2019-05-01T19:08:32.305Z,16.76
2019-05-01T19:11:11.766Z,16.77
2019-05-01T19:13:32.141Z,16.70
2019-05-01T19:16:03.297Z,16.65
2019-05-01T19:18:32.795Z,16.71
2019-05-01T19:21:01.548Z,16.74
2019-05-01T19:23:33.208Z,16.70
2019-05-01T19:26:05.030Z,16.64
2019-05-01T19:28:31.240Z,16.63
2019-05-01T19:31:00.061Z,16.64
2019-05-01T19:33:28.928Z,16.60
2019-05-01T19:35:57.664Z,16.62
2019-05-01T19:38:29.505Z,16.70
2019-05-01T19:40:56.949Z,16.73
2019-05-01T19:43:25.667Z,16.80
2019-05-01T19:45:54.613Z,16.86
2019-05-01T19:48:23.434Z,16.81
2019-05-01T19:50:52.148Z,16.74
2019-05-01T19:53:20.978Z,16.77
2019-05-01T19:55:49.854Z,16.81
2019-05-01T19:58:18.577Z,16.84
2019-05-01T20:00:55.846Z,16.83
2019-05-01T20:03:25.138Z,16.81
2019-05-01T20:05:53.847Z,16.89
2019-05-01T20:08:22.713Z,16.77
2019-05-01T20:10:51.423Z,16.68
2019-05-01T20:13:20.148Z,16.56
2019-05-01T20:15:49.088Z,16.47
2019-05-01T20:18:18.014Z,16.41
2019-05-01T20:20:46.726Z,16.34
2019-05-01T20:23:15.546Z,16.29
2019-05-01T20:25:44.259Z,16.28
2019-05-01T20:28:12.977Z,16.30
2019-05-01T20:30:42.520Z,16.26
2019-05-01T20:33:11.294Z,16.24
2019-05-01T20:35:40.058Z,16.16
2019-05-01T20:38:08.896Z,16.12
2019-05-01T20:40:37.712Z,15.97
2019-05-01T20:43:07.333Z,15.84
2019-05-01T20:45:36.527Z,15.93
2019-05-01T20:48:05.378Z,15.95
2019-05-01T20:50:34.101Z,15.86
2019-05-01T20:53:03.704Z,15.81
2019-05-01T20:55:32.423Z,15.78
2019-05-01T20:58:21.388Z,15.90
2019-05-01T21:00:53.469Z,15.82
2019-05-01T21:03:22.312Z,15.87
2019-05-01T21:05:55.581Z,15.88
2019-05-01T21:08:29.062Z,15.75
2019-05-01T21:11:00.815Z,15.69
2019-05-01T21:13:29.548Z,15.62
2019-05-01T21:16:01.778Z,15.46
2019-05-01T21:18:28.702Z,15.41
2019-05-01T21:20:57.384Z,15.39
2019-05-01T21:23:26.115Z,15.31
2019-05-01T21:25:54.908Z,15.13
2019-05-01T21:28:24.088Z,15.18
2019-05-01T21:30:54.384Z,15.29
2019-05-01T21:33:23.881Z,15.35
2019-05-01T21:35:53.384Z,15.28
2019-05-01T21:38:22.096Z,15.16
2019-05-01T21:40:50.894Z,15.14
2019-05-01T21:43:19.619Z,15.14
2019-05-01T21:45:48.339Z,15.06
2019-05-01T21:48:17.085Z,15.06
2019-05-01T21:50:45.803Z,15.09
2019-05-01T21:53:14.515Z,15.11
2019-05-01T21:55:43.384Z,15.07
2019-05-01T21:58:12.101Z,14.88
2019-05-01T22:00:41.822Z,14.93
2019-05-01T22:03:12.203Z,14.97
2019-05-01T22:05:41.013Z,15.03
2019-05-01T22:08:09.735Z,14.96
2019-05-01T22:10:50.753Z,15.06
2019-05-01T22:13:09.109Z,15.07
2019-05-01T22:15:42.069Z,15.01
2019-05-01T22:18:11.573Z,14.98
2019-05-01T22:20:44.985Z,15.02
2019-05-01T22:23:17.099Z,14.82
2019-05-01T22:25:47.519Z,14.85
2019-05-01T22:28:23.620Z,14.79
2019-05-01T22:31:10.179Z,14.70
2019-05-01T22:33:40.226Z,14.77
2019-05-01T22:36:08.931Z,14.65
2019-05-01T22:38:37.648Z,14.59
2019-05-01T22:41:11.006Z,14.52
2019-05-01T22:43:39.723Z,14.51
2019-05-01T22:46:10.005Z,14.50
2019-05-01T22:48:38.791Z,14.48
2019-05-01T22:51:21.327Z,14.53
2019-05-01T22:53:51.798Z,14.52
2019-05-01T22:56:20.519Z,14.44
2019-05-01T22:58:49.234Z,14.43
2019-05-01T23:01:19.332Z,14.36
2019-05-01T23:03:49.783Z,14.33
2019-05-01T23:06:18.809Z,14.27
2019-05-01T23:08:47.861Z,14.26
2019-05-01T23:11:20.269Z,14.35
2019-05-01T23:13:47.050Z,14.32
2019-05-01T23:16:16.815Z,14.36
2019-05-01T23:18:47.077Z,14.31
2019-05-01T23:21:16.163Z,14.20
2019-05-01T23:23:44.977Z,14.22
2019-05-01T23:26:16.546Z,14.06
2019-05-01T23:28:44.335Z,14.10
2019-05-01T23:31:13.283Z,14.12
2019-05-01T23:33:45.752Z,14.13
2019-05-01T23:36:22.913Z,14.11
2019-05-01T23:38:42.915Z,14.06
2019-05-01T23:41:13.645Z,14.07
2019-05-01T23:43:42.367Z,14.13
2019-05-01T23:46:11.220Z,14.05
2019-05-01T23:48:39.941Z,14.16
2019-05-01T23:51:08.656Z,14.09
2019-05-01T23:53:37.418Z,14.00
2019-05-01T23:56:06.133Z,13.97
2019-05-01T23:58:34.850Z,14.08
